Time;durP1;ratioP1;P1;durP2;ratioP2;P2;SDS_P1;SDS_P2;PMS_P1;PMS_P2;Temp;Humidity;BMP_temperature;BMP_pressure;BME280_temperature;BME280_humidity;BME280_pressure;Samples;Min_cycle;Max_cycle;Signal;HPM_P1;HPM_P2
2022/04/16 00:00:41;;;;;;;;;;;;;;;20.91;43.57;102872.19;4972895;28;19970;-74
2022/04/16 00:03:10;;;;;;;;;;;;;;;20.90;43.39;102871.38;4971680;28;20395;-74
2022/04/16 00:05:35;;;;;;;;;;;;;;;20.90;43.58;102871.38;4972057;28;19926;-76
2022/04/16 00:08:09;;;;;;;;;;;;;;;20.90;43.62;102874.13;4972343;28;19923;-75
2022/04/16 00:10:35;;;;;;;;;;;;;;;20.90;43.55;102876.88;4973260;28;19922;-75
2022/04/16 00:13:01;;;;;;;;;;;;;;;20.89;43.73;102883.47;4972841;28;19922;-75
2022/04/16 00:15:27;;;;;;;;;;;;;;;20.89;43.51;102879.88;4963919;28;19926;-76
2022/04/16 00:17:52;;;;;;;;;;;;;;;20.88;43.41;102880.97;4970178;28;19925;-75
2022/04/16 00:20:17;;;;;;;;;;;;;;;20.88;43.58;102878.22;4967389;28;20028;-75
2022/04/16 00:22:43;;;;;;;;;;;;;;;20.87;43.64;102868.34;4954348;29;19969;-75
2022/04/16 00:25:08;;;;;;;;;;;;;;;20.87;43.80;102887.56;4970822;28;19973;-75
2022/04/16 00:27:34;;;;;;;;;;;;;;;20.85;43.83;102885.06;4972770;28;19929;-75
2022/04/16 00:29:59;;;;;;;;;;;;;;;20.84;43.72;102877.91;4972971;28;20252;-75
2022/04/16 00:32:25;;;;;;;;;;;;;;;20.85;43.51;102885.06;4973254;28;19929;-76
2022/04/16 00:34:50;;;;;;;;;;;;;;;20.85;43.68;102881.50;4971120;28;19949;-76
2022/04/16 00:37:15;;;;;;;;;;;;;;;20.83;43.73;102881.75;4973018;28;19922;-79
2022/04/16 00:39:41;;;;;;;;;;;;;;;20.83;43.55;102880.91;4980108;28;19933;-75
2022/04/16 00:42:06;;;;;;;;;;;;;;;20.82;43.38;102888.34;4972150;28;20228;-75
2022/04/16 00:44:31;;;;;;;;;;;;;;;20.81;43.69;102883.91;4972750;28;19976;-78
2022/04/16 00:46:57;;;;;;;;;;;;;;;20.81;43.62;102888.59;4964502;28;20370;-75
2022/04/16 00:49:22;;;;;;;;;;;;;;;20.80;43.77;102887.75;4972267;28;19969;-76
2022/04/16 00:51:48;;;;;;;;;;;;;;;20.80;43.43;102890.50;4984615;28;20446;-75
2022/04/16 00:54:13;;;;;;;;;;;;;;;20.79;43.70;102888.00;4964428;28;19929;-75
2022/04/16 00:56:39;;;;;;;;;;;;;;;20.79;43.76;102886.13;4971448;28;20029;-75
2022/04/16 00:59:04;;;;;;;;;;;;;;;20.79;43.74;102890.75;4975815;28;20275;-75
2022/04/16 01:01:30;;;;;;;;;;;;;;;20.78;43.64;102891.84;4976226;28;19922;-75
2022/04/16 01:03:55;;;;;;;;;;;;;;;20.78;43.42;102886.34;4975841;28;19976;-75
2022/04/16 01:06:21;;;;;;;;;;;;;;;20.77;43.46;102891.03;4968168;28;20103;-75
2022/04/16 01:08:46;;;;;;;;;;;;;;;20.76;43.70;102889.34;4960314;28;19965;-75
2022/04/16 01:11:12;;;;;;;;;;;;;;;20.76;43.43;102897.59;4975341;28;19918;-76
2022/04/16 01:13:37;;;;;;;;;;;;;;;20.76;43.67;102897.59;4976334;28;20317;-76
2022/04/16 01:16:04;;;;;;;;;;;;;;;20.75;43.58;102902.25;4974080;28;19922;-75
2022/04/16 01:18:29;;;;;;;;;;;;;;;20.75;43.53;102902.25;4974975;28;20304;-76
2022/04/16 01:20:55;;;;;;;;;;;;;;;20.75;43.50;102901.44;4975194;28;19930;-75
2022/04/16 01:23:20;;;;;;;;;;;;;;;20.74;43.73;102900.63;4976324;28;19973;-75
2022/04/16 01:25:46;;;;;;;;;;;;;;;20.74;43.74;102908.84;4975982;28;19965;-75
2022/04/16 01:28:12;;;;;;;;;;;;;;;20.74;43.44;102906.09;4974952;28;20014;-75
2022/04/16 01:30:37;;;;;;;;;;;;;;;20.73;43.62;102903.63;4975141;28;19922;-75
2022/04/16 01:33:03;;;;;;;;;;;;;;;20.73;43.56;102917.34;4974576;28;19922;-75
2022/04/16 01:35:29;;;;;;;;;;;;;;;20.73;43.68;102909.09;4974879;28;20021;-76
2022/04/16 01:37:54;;;;;;;;;;;;;;;20.72;43.39;102911.03;4988936;28;20252;-76
2022/04/16 01:40:25;;;;;;;;;;;;;;;20.72;43.49;102913.78;4965298;28;19926;-75
2022/04/16 01:42:51;;;;;;;;;;;;;;;20.72;43.54;102916.53;4971737;28;20020;-75
2022/04/16 01:45:18;;;;;;;;;;;;;;;20.72;43.56;102918.44;4970048;28;20389;-75
2022/04/16 01:47:43;;;;;;;;;;;;;;;20.71;43.42;102914.03;4979956;28;19923;-75
2022/04/16 01:50:09;;;;;;;;;;;;;;;20.70;43.43;102910.44;4987424;28;19928;-75
2022/04/16 01:52:35;;;;;;;;;;;;;;;20.70;43.42;102913.19;4966582;28;19922;-76
2022/04/16 01:55:00;;;;;;;;;;;;;;;20.68;43.39;102906.31;4974521;28;19918;-75
2022/04/16 01:57:26;;;;;;;;;;;;;;;20.69;43.53;102906.06;4974153;28;19932;-75
2022/04/16 01:59:52;;;;;;;;;;;;;;;20.67;43.91;102899.16;4957128;28;19927;-75
2022/04/16 02:02:18;;;;;;;;;;;;;;;20.67;43.51;102910.97;4973853;28;19965;-75
2022/04/16 02:04:44;;;;;;;;;;;;;;;20.66;43.32;102906.59;4975050;28;20021;-75
2022/04/16 02:07:09;;;;;;;;;;;;;;;20.67;43.49;102910.97;4986813;28;20013;-74
2022/04/16 02:09:35;;;;;;;;;;;;;;;20.67;43.43;102913.72;4961958;28;19919;-74
2022/04/16 02:12:00;;;;;;;;;;;;;;;20.67;43.51;102910.97;4962647;28;19918;-75
2022/04/16 02:14:25;;;;;;;;;;;;;;;20.67;43.39;102910.97;4974939;28;19964;-78
2022/04/16 02:16:50;;;;;;;;;;;;;;;20.67;43.54;102910.16;4975033;28;20018;-73
2022/04/16 02:19:16;;;;;;;;;;;;;;;20.66;43.38;102912.06;4961899;28;20395;-74
2022/04/16 02:21:44;;;;;;;;;;;;;;;20.66;43.40;102911.22;4989750;28;19914;-76
2022/04/16 02:24:10;;;;;;;;;;;;;;;20.65;43.67;102915.88;4972184;28;19922;-75
2022/04/16 02:26:37;;;;;;;;;;;;;;;20.65;43.58;102910.41;4989107;28;20390;-76
2022/04/16 02:29:03;;;;;;;;;;;;;;;20.66;43.69;102911.22;4973980;28;19914;-74
2022/04/16 02:31:28;;;;;;;;;;;;;;;20.65;43.46;102907.66;4974618;28;19921;-74
2022/04/16 02:33:57;;;;;;;;;;;;;;;20.65;43.53;102906.81;4971373;28;20008;-74
2022/04/16 02:36:25;;;;;;;;;;;;;;;20.63;43.74;102907.06;4974673;28;19914;-75
2022/04/16 02:38:52;;;;;;;;;;;;;;;20.63;43.54;102907.06;4969032;28;20012;-74
2022/04/16 02:41:18;;;;;;;;;;;;;;;20.64;43.56;102906.00;4965461;28;19926;-74
2022/04/16 02:43:43;;;;;;;;;;;;;;;20.63;43.74;102909.81;4964382;28;20013;-74
2022/04/16 02:48:52;;;;;;;;;;;;;;;20.61;43.47;102912.00;4970243;28;19977;-76
2022/04/16 02:51:18;;;;;;;;;;;;;;;20.62;43.48;102915.59;4959130;28;19918;-75
2022/04/16 02:53:43;;;;;;;;;;;;;;;20.61;43.51;102917.47;4973468;28;19922;-76
2022/04/16 02:56:09;;;;;;;;;;;;;;;20.61;43.55;102916.66;4966822;28;20279;-76
2022/04/16 02:58:34;;;;;;;;;;;;;;;20.60;43.55;102920.50;4973592;28;19922;-76
2022/04/16 03:01:00;;;;;;;;;;;;;;;20.60;43.72;102924.06;4973953;28;19974;-76
2022/04/16 03:03:25;;;;;;;;;;;;;;;20.60;43.62;102926.81;4973672;28;19918;-76
2022/04/16 03:05:50;;;;;;;;;;;;;;;20.59;43.36;102927.91;4973227;28;19929;-76
2022/04/16 03:08:15;;;;;;;;;;;;;;;20.59;43.73;102927.91;4973533;28;20354;-75
2022/04/16 03:10:41;;;;;;;;;;;;;;;20.58;43.67;102918.00;4974036;28;19936;-76
2022/04/16 03:13:07;;;;;;;;;;;;;;;20.58;43.70;102920.75;4972644;28;19969;-76
2022/04/16 03:18:16;;;;;;;;;;;;;;;20.57;43.56;102924.59;4973719;28;19925;-75
2022/04/16 03:20:42;;;;;;;;;;;;;;;20.56;43.43;102925.66;4973134;28;20267;-76
2022/04/16 03:23:09;;;;;;;;;;;;;;;20.56;43.58;102928.41;4973080;28;19922;-77
2022/04/16 03:25:35;;;;;;;;;;;;;;;20.57;43.56;102929.25;4955090;28;20343;-76
2022/04/16 03:28:00;;;;;;;;;;;;;;;20.56;43.41;102922.91;4973753;28;19964;-75
2022/04/16 03:30:25;;;;;;;;;;;;;;;20.57;43.51;102923.78;4972647;28;19934;-76
2022/04/16 03:32:51;;;;;;;;;;;;;;;20.55;43.49;102924.00;4973436;28;19921;-76
2022/04/16 03:35:20;;;;;;;;;;;;;;;20.56;43.48;102924.84;4973278;28;19925;-75
2022/04/16 03:37:45;;;;;;;;;;;;;;;20.56;43.65;102922.09;4973453;28;19934;-75
2022/04/16 03:40:12;;;;;;;;;;;;;;;20.54;43.55;102925.09;4967668;28;19936;-75
2022/04/16 03:42:47;;;;;;;;;;;;;;;20.53;43.46;102923.41;4973668;28;20012;-75
2022/04/16 03:45:20;;;;;;;;;;;;;;;20.53;43.57;102917.91;4972458;28;20378;-76
2022/04/16 03:47:46;;;;;;;;;;;;;;;20.52;43.63;102930.00;4973378;28;20008;-76
2022/04/16 03:50:12;;;;;;;;;;;;;;;20.52;43.69;102919.84;4958742;28;19922;-75
2022/04/16 03:52:44;;;;;;;;;;;;;;;20.51;43.67;102918.19;4972987;28;20278;-75
2022/04/16 04:00:44;;;;;;;;;;;;;;;20.49;43.42;102920.34;4972720;28;20345;-75
2022/04/16 04:03:13;;;;;;;;;;;;;;;20.49;43.45;102925.84;4973093;28;20366;-75
2022/04/16 04:05:39;;;;;;;;;;;;;;;20.49;43.71;102927.78;4973413;28;19915;-74
2022/04/16 04:08:05;;;;;;;;;;;;;;;20.49;43.45;102936.00;4973233;28;19918;-81
2022/04/16 04:10:30;;;;;;;;;;;;;;;20.48;43.73;102935.16;4972375;28;19949;-75
2022/04/16 04:12:55;;;;;;;;;;;;;;;20.48;43.43;102939.81;4973289;28;20350;-76
2022/04/16 04:15:21;;;;;;;;;;;;;;;20.48;43.85;102937.06;4971823;28;19922;-76
2022/04/16 04:17:46;;;;;;;;;;;;;;;20.47;43.63;102938.16;4972973;28;19925;-76
2022/04/16 04:20:12;;;;;;;;;;;;;;;20.47;43.61;102939.00;4972830;28;19929;-75
2022/04/16 04:22:37;;;;;;;;;;;;;;;20.47;43.71;102939.00;4973229;28;19936;-75
2022/04/16 04:25:02;;;;;;;;;;;;;;;20.46;43.48;102940.09;4969138;28;19989;-75
2022/04/16 04:27:27;;;;;;;;;;;;;;;20.46;43.70;102950.22;4973323;28;20143;-75
2022/04/16 04:29:53;;;;;;;;;;;;;;;20.45;43.71;102956.81;4972812;28;19925;-75
2022/04/16 04:32:18;;;;;;;;;;;;;;;20.46;43.60;102956.56;4969025;28;19976;-75
2022/04/16 04:34:43;;;;;;;;;;;;;;;20.46;43.43;102961.19;4963920;28;19918;-74
2022/04/16 04:37:08;;;;;;;;;;;;;;;20.44;43.63;102945.00;4976487;28;20247;-74
2022/04/16 04:39:34;;;;;;;;;;;;;;;20.45;43.62;102956.81;4976702;28;19918;-73
2022/04/16 04:41:59;;;;;;;;;;;;;;;20.45;43.48;102956.81;4989288;28;20405;-76
2022/04/16 04:44:24;;;;;;;;;;;;;;;20.45;43.70;102959.56;4976242;28;19922;-75
2022/04/16 04:46:49;;;;;;;;;;;;;;;20.44;43.40;102964.22;4976712;28;20302;-76
2022/04/16 04:49:15;;;;;;;;;;;;;;;20.44;43.74;102966.13;4976063;28;20244;-76
2022/04/16 04:51:40;;;;;;;;;;;;;;;20.44;43.64;102964.22;4976308;28;19929;-76
2022/04/16 04:54:06;;;;;;;;;;;;;;;20.44;43.46;102960.66;4976567;28;19919;-75
2022/04/16 04:56:32;;;;;;;;;;;;;;;20.43;43.71;102961.72;4976229;28;19918;-76
2022/04/16 04:58:57;;;;;;;;;;;;;;;20.44;43.41;102963.41;4973994;28;19933;-75
2022/04/16 05:01:23;;;;;;;;;;;;;;;20.43;43.32;102964.47;4964858;28;19918;-75
2022/04/16 05:03:48;;;;;;;;;;;;;;;20.42;43.35;102965.56;4991068;28;19996;-75
2022/04/16 05:06:13;;;;;;;;;;;;;;;20.42;43.43;102965.56;4975920;28;19914;-76
2022/04/16 05:08:39;;;;;;;;;;;;;;;20.41;43.27;102969.38;4975832;28;19926;-76
2022/04/16 05:11:04;;;;;;;;;;;;;;;20.41;43.45;102978.47;4975941;28;19925;-75
2022/04/16 05:13:29;;;;;;;;;;;;;;;20.41;43.62;102983.09;4975746;28;20346;-75
2022/04/16 05:15:54;;;;;;;;;;;;;;;20.41;43.41;102983.09;4976226;28;20357;-78
2022/04/16 05:18:19;;;;;;;;;;;;;;;20.40;43.54;102981.44;4974909;28;19918;-75
2022/04/16 05:20:45;;;;;;;;;;;;;;;20.40;43.52;102978.69;4964888;28;19929;-75
2022/04/16 05:23:10;;;;;;;;;;;;;;;20.40;43.58;102990.50;4972086;28;19923;-76
2022/04/16 05:25:35;;;;;;;;;;;;;;;20.39;43.65;102985.28;4972266;28;19925;-75
2022/04/16 05:28:00;;;;;;;;;;;;;;;20.40;43.37;102986.94;4975363;28;20243;-75
2022/04/16 05:30:33;;;;;;;;;;;;;;;20.38;43.64;102978.94;4973443;28;19922;-75
2022/04/16 05:33:02;;;;;;;;;;;;;;;20.39;43.38;102985.28;4971593;28;19982;-77
2022/04/16 05:35:27;;;;;;;;;;;;;;;20.38;43.38;102987.19;4970904;28;19985;-76
2022/04/16 05:37:53;;;;;;;;;;;;;;;20.38;43.32;102987.19;4973381;28;20374;-74
2022/04/16 05:40:18;;;;;;;;;;;;;;;20.37;43.27;102988.28;4975143;28;19918;-74
2022/04/16 05:42:43;;;;;;;;;;;;;;;20.38;43.34;102994.59;4975583;28;19918;-73
2022/04/16 05:45:09;;;;;;;;;;;;;;;20.37;43.35;102993.75;4973923;28;19969;-74
2022/04/16 05:47:34;;;;;;;;;;;;;;;20.36;43.35;103003.09;4974798;28;19926;-75
2022/04/16 05:50:00;;;;;;;;;;;;;;;20.37;43.56;103001.19;4975225;28;19921;-77
2022/04/16 05:52:25;;;;;;;;;;;;;;;20.36;43.27;103008.59;4973490;28;19918;-74
2022/04/16 05:54:51;;;;;;;;;;;;;;;20.35;43.22;103006.91;4974709;28;20080;-75
2022/04/16 05:57:18;;;;;;;;;;;;;;;20.36;43.45;103010.47;4975199;28;19921;-85
2022/04/16 05:59:43;;;;;;;;;;;;;;;20.35;43.30;103015.16;4970971;28;19918;-74
2022/04/16 06:02:10;;;;;;;;;;;;;;;20.35;43.66;103017.06;4971423;28;20385;-74
2022/04/16 06:04:35;;;;;;;;;;;;;;;20.35;43.47;103017.88;4962117;28;19923;-74
2022/04/16 06:07:00;;;;;;;;;;;;;;;20.36;43.62;103026.94;4956935;28;19926;-75
2022/04/16 06:09:26;;;;;;;;;;;;;;;20.36;43.32;103035.19;4965739;28;19918;-76
2022/04/16 06:11:52;;;;;;;;;;;;;;;20.34;43.53;103034.63;4974579;28;20314;-78
2022/04/16 06:14:17;;;;;;;;;;;;;;;20.34;43.63;103043.69;4974183;28;19938;-76
2022/04/16 06:16:43;;;;;;;;;;;;;;;20.34;43.41;103042.88;4974623;28;19918;-76
2022/04/16 06:19:08;;;;;;;;;;;;;;;20.34;43.54;103043.69;4974656;28;19973;-74
2022/04/16 06:21:33;;;;;;;;;;;;;;;20.34;43.35;103045.59;4965700;28;19929;-76
2022/04/16 06:23:58;;;;;;;;;;;;;;;20.34;43.29;103043.69;4974885;28;19961;-76
2022/04/16 06:26:27;;;;;;;;;;;;;;;20.34;43.30;103045.59;4974079;28;20341;-76
2022/04/16 06:28:52;;;;;;;;;;;;;;;20.34;43.28;103048.34;4974824;28;19915;-78
2022/04/16 06:31:17;;;;;;;;;;;;;;;20.34;43.28;103045.59;4965796;28;19918;-77
2022/04/16 06:33:42;;;;;;;;;;;;;;;20.34;43.43;103038.19;4966523;28;19929;-76
2022/04/16 06:36:08;;;;;;;;;;;;;;;20.34;43.57;103038.19;4974625;28;19922;-75
2022/04/16 06:38:33;;;;;;;;;;;;;;;20.34;43.70;103051.09;4973548;28;19925;-75
2022/04/16 06:40:58;;;;;;;;;;;;;;;20.35;43.26;103056.31;4974669;28;19930;-75
2022/04/16 06:43:23;;;;;;;;;;;;;;;20.35;43.80;103055.50;4974115;28;20472;-75
2022/04/16 06:45:49;;;;;;;;;;;;;;;20.36;43.21;103065.38;4973788;28;20281;-77
2022/04/16 06:48:14;;;;;;;;;;;;;;;20.35;43.28;103069.22;4968180;28;19923;-75
2022/04/16 06:50:39;;;;;;;;;;;;;;;20.35;43.39;103067.28;4972561;28;19922;-75
2022/04/16 06:53:05;;;;;;;;;;;;;;;20.35;43.39;103067.28;4974126;28;19924;-80
2022/04/16 06:55:30;;;;;;;;;;;;;;;20.35;43.54;103064.56;4973684;28;20008;-75
2022/04/16 06:57:55;;;;;;;;;;;;;;;20.35;43.67;103061.81;4965242;28;19972;-75
2022/04/16 07:00:20;;;;;;;;;;;;;;;20.34;43.64;103060.16;4974357;28;19922;-76
2022/04/16 07:02:46;;;;;;;;;;;;;;;20.35;43.38;103063.72;4973596;28;19914;-75
2022/04/16 07:05:11;;;;;;;;;;;;;;;20.35;43.30;103071.97;4973878;28;19918;-74
2022/04/16 07:07:36;;;;;;;;;;;;;;;20.35;43.73;103069.22;4973035;28;19972;-75
2022/04/16 07:10:02;;;;;;;;;;;;;;;20.35;43.36;103072.78;4961770;28;19922;-74
2022/04/16 07:12:27;;;;;;;;;;;;;;;20.36;43.46;103070.88;4959157;28;19926;-76
2022/04/16 07:14:53;;;;;;;;;;;;;;;20.36;43.26;103076.34;4973604;28;19961;-76
2022/04/16 07:17:18;;;;;;;;;;;;;;;20.36;43.36;103079.09;4972915;28;19922;-76
2022/04/16 07:19:43;;;;;;;;;;;;;;;20.36;43.39;103068.97;4968593;28;20290;-76
2022/04/16 07:22:09;;;;;;;;;;;;;;;20.37;43.42;103072.53;4966296;28;19918;-75
2022/04/16 07:24:37;;;;;;;;;;;;;;;20.37;43.80;103072.53;4973258;28;20359;-77
2022/04/16 07:27:03;;;;;;;;;;;;;;;20.36;43.78;103068.97;4987917;28;20016;-76
2022/04/16 07:29:28;;;;;;;;;;;;;;;20.38;43.57;103068.69;4973384;28;20061;-76
2022/04/16 07:31:54;;;;;;;;;;;;;;;20.37;43.62;103065.13;4987315;28;20410;-78
2022/04/16 07:34:19;;;;;;;;;;;;;;;20.37;43.47;103067.06;4973376;28;19921;-74
2022/04/16 07:36:45;;;;;;;;;;;;;;;20.38;43.72;103058.53;4972850;28;19914;-76
2022/04/16 07:39:10;;;;;;;;;;;;;;;20.38;43.36;103068.69;4973933;28;20356;-76
2022/04/16 07:41:36;;;;;;;;;;;;;;;20.38;43.41;103063.22;4972084;28;20351;-77
2022/04/16 07:44:03;;;;;;;;;;;;;;;20.37;43.43;103065.13;4973541;28;19926;-74
2022/04/16 07:46:34;;;;;;;;;;;;;;;20.38;43.64;103057.72;4972693;28;19977;-76
2022/04/16 07:49:00;;;;;;;;;;;;;;;20.39;43.41;103062.16;4973544;28;19914;-77
2022/04/16 07:51:25;;;;;;;;;;;;;;;20.37;43.43;103059.66;4968835;28;20342;-76
2022/04/16 07:53:51;;;;;;;;;;;;;;;20.38;43.42;103060.47;4963634;28;20378;-74
2022/04/16 07:56:16;;;;;;;;;;;;;;;20.38;43.66;103066.78;4972609;28;19918;-76
2022/04/16 07:58:41;;;;;;;;;;;;;;;20.39;43.54;103064.91;4971166;28;20021;-76
2022/04/16 08:01:07;;;;;;;;;;;;;;;20.39;43.66;103070.38;4972760;28;19933;-76
2022/04/16 08:03:32;;;;;;;;;;;;;;;20.40;43.66;103069.28;4972816;28;20385;-76
2022/04/16 08:05:57;;;;;;;;;;;;;;;20.40;43.60;103072.03;4972644;28;20338;-74
2022/04/16 08:08:22;;;;;;;;;;;;;;;20.40;43.71;103069.28;4976075;28;19930;-75
2022/04/16 08:10:51;;;;;;;;;;;;;;;20.42;43.46;103073.44;4976831;28;20261;-76
2022/04/16 08:13:18;;;;;;;;;;;;;;;20.42;43.40;103075.38;4976719;28;19930;-74
2022/04/16 08:15:43;;;;;;;;;;;;;;;20.43;43.49;103071.53;4966633;28;19930;-75
2022/04/16 08:18:09;;;;;;;;;;;;;;;20.43;43.68;103074.25;4991920;28;19996;-78
2022/04/16 08:20:34;;;;;;;;;;;;;;;20.47;43.61;103080.94;4967651;28;20058;-77
2022/04/16 08:23:01;;;;;;;;;;;;;;;20.48;43.76;103068.84;4971951;28;20016;-76
2022/04/16 08:27:55;;;;;;;;;;;;;;;20.52;43.92;103083.75;4976607;28;19922;-76
2022/04/16 08:30:21;;;;;;;;;;;;;;;20.55;44.00;103085.19;4976881;28;20077;-76
2022/04/16 08:32:47;;;;;;;;;;;;;;;20.57;43.94;103086.59;4976925;28;19919;-76
2022/04/16 08:35:13;;;;;;;;;;;;;;;20.59;44.17;103091.81;4969153;28;19929;-75
2022/04/16 08:37:40;;;;;;;;;;;;;;;20.59;44.24;103084.44;4965779;28;19922;-76
2022/04/16 08:40:05;;;;;;;;;;;;;;;20.62;44.27;103083.09;4972735;28;20315;-79
2022/04/16 08:42:34;;;;;;;;;;;;;;;20.64;44.02;103084.50;4960429;28;20443;-81
2022/04/16 08:45:00;;;;;;;;;;;;;;;20.66;44.27;103082.34;4981886;28;19986;-76
2022/04/16 08:47:26;;;;;;;;;;;;;;;20.67;44.54;103092.22;4962993;28;19926;-76
2022/04/16 08:49:51;;;;;;;;;;;;;;;20.68;44.24;103093.03;4969140;28;19933;-76
2022/04/16 08:52:17;;;;;;;;;;;;;;;20.70;44.39;103088.13;4967608;28;19922;-77
2022/04/16 08:54:42;;;;;;;;;;;;;;;20.70;44.46;103090.88;4975129;28;19922;-77
2022/04/16 08:57:07;;;;;;;;;;;;;;;20.70;44.48;103091.72;4975920;28;19965;-74
2022/04/16 08:59:33;;;;;;;;;;;;;;;20.71;44.50;103093.38;4974993;28;20374;-78
2022/04/16 09:01:58;;;;;;;;;;;;;;;20.71;44.58;103093.38;4964759;28;19923;-72
2022/04/16 09:04:23;;;;;;;;;;;;;;;20.72;44.69;103097.78;4969866;28;20434;-74
2022/04/16 09:06:59;;;;;;;;;;;;;;;20.72;44.59;103097.78;4975034;28;20087;-74
2022/04/16 09:09:24;;;;;;;;;;;;;;;20.72;44.71;103088.72;4976277;28;20359;-75
2022/04/16 09:11:49;;;;;;;;;;;;;;;20.73;44.57;103099.44;4963345;28;19939;-75
2022/04/16 09:14:15;;;;;;;;;;;;;;;20.72;44.78;103092.28;4965852;28;20025;-73
2022/04/16 09:16:41;;;;;;;;;;;;;;;20.72;44.88;103085.97;4967987;28;19966;-74
2022/04/16 09:19:10;;;;;;;;;;;;;;;20.72;44.83;103092.28;4963915;28;20435;-73
2022/04/16 09:21:36;;;;;;;;;;;;;;;20.72;44.77;103078.56;4975215;28;19960;-78
2022/04/16 09:24:02;;;;;;;;;;;;;;;20.73;44.95;103085.69;4970958;28;20379;-73
2022/04/16 09:26:31;;;;;;;;;;;;;;;20.74;44.65;103090.13;4973645;28;19918;-74
2022/04/16 09:29:01;;;;;;;;;;;;;;;20.75;44.65;103088.19;4966249;28;19922;-73
2022/04/16 09:31:28;;;;;;;;;;;;;;;20.74;44.61;103079.13;4968428;28;20016;-73
2022/04/16 09:33:53;;;;;;;;;;;;;;;20.75;44.54;103075.28;4966335;28;19923;-74
2022/04/16 09:36:25;;;;;;;;;;;;;;;20.78;44.59;103086.88;4985754;28;19933;-74
2022/04/16 09:38:58;;;;;;;;;;;;;;;20.78;44.89;103081.38;4965860;28;20013;-74
2022/04/16 09:41:29;;;;;;;;;;;;;;;20.79;44.75;103086.63;4974724;28;19918;-73
2022/04/16 09:43:54;;;;;;;;;;;;;;;20.79;44.85;103075.63;4974583;28;19922;-74
2022/04/16 09:46:20;;;;;;;;;;;;;;;20.80;44.64;103080.03;4974834;28;20298;-74
2022/04/16 09:48:46;;;;;;;;;;;;;;;20.80;44.61;103079.22;4974290;28;20294;-73
2022/04/16 09:51:11;;;;;;;;;;;;;;;20.81;44.71;103083.59;4974366;28;19930;-74
2022/04/16 09:53:37;;;;;;;;;;;;;;;20.81;44.60;103080.84;4973118;28;19951;-75
2022/04/16 09:56:02;;;;;;;;;;;;;;;20.81;44.88;103067.94;4990634;28;19948;-73
2022/04/16 09:58:33;;;;;;;;;;;;;;;20.82;44.97;103071.53;4975201;28;19957;-73
2022/04/16 10:00:59;;;;;;;;;;;;;;;20.82;44.53;103077.03;4974340;28;19925;-73
2022/04/16 10:03:25;;;;;;;;;;;;;;;20.83;44.76;103075.94;4969407;28;19969;-73
2022/04/16 10:05:51;;;;;;;;;;;;;;;20.84;44.67;103069.34;4974695;28;20401;-74
2022/04/16 10:08:17;;;;;;;;;;;;;;;20.84;44.92;103066.59;4974674;28;19918;-76
2022/04/16 10:10:46;;;;;;;;;;;;;;;20.85;44.70;103066.34;4973178;28;19934;-76
2022/04/16 10:13:13;;;;;;;;;;;;;;;20.85;44.57;103071.84;4957817;28;20013;-76
2022/04/16 10:15:48;;;;;;;;;;;;;;;20.85;44.78;103060.03;4961587;28;20383;-80
2022/04/16 10:18:13;;;;;;;;;;;;;;;20.85;45.08;103057.28;4971664;28;19925;-76
2022/04/16 10:20:49;;;;;;;;;;;;;;;20.86;44.98;103061.69;4974834;28;20042;-73
2022/04/16 10:23:23;;;;;;;;;;;;;;;20.86;44.78;103070.75;4972605;28;19930;-74
2022/04/16 10:25:49;;;;;;;;;;;;;;;20.87;44.94;103061.44;4974710;28;19985;-73
2022/04/16 10:28:20;;;;;;;;;;;;;;;20.87;44.77;103071.59;4974463;28;19926;-74
2022/04/16 10:30:52;;;;;;;;;;;;;;;20.88;44.83;103065.00;4973330;28;19925;-73
2022/04/16 10:33:19;;;;;;;;;;;;;;;20.88;44.78;103067.75;4968577;28;19921;-74
2022/04/16 10:35:56;;;;;;;;;;;;;;;20.88;44.69;103076.81;4973001;28;20370;-74
2022/04/16 10:38:43;;;;;;;;;;;;;;;20.89;44.69;103069.41;4974408;28;19929;-73
2022/04/16 10:41:15;;;;;;;;;;;;;;;20.90;44.90;103068.34;4974196;28;20418;-74
2022/04/16 10:43:40;;;;;;;;;;;;;;;20.90;44.79;103060.94;4966373;28;20370;-74
2022/04/16 10:46:07;;;;;;;;;;;;;;;20.91;44.55;103065.31;4974488;28;19922;-74
2022/04/16 10:48:36;;;;;;;;;;;;;;;20.92;44.86;103063.44;4959083;28;20005;-75
2022/04/16 10:51:02;;;;;;;;;;;;;;;20.92;44.86;103060.69;4969536;28;19977;-74
2022/04/16 10:53:32;;;;;;;;;;;;;;;20.92;44.62;103072.50;4969734;28;19977;-75
2022/04/16 10:56:06;;;;;;;;;;;;;;;20.92;44.66;103061.50;4988477;28;20267;-75
2022/04/16 10:58:31;;;;;;;;;;;;;;;20.93;44.88;103056.84;4974112;28;19926;-75
2022/04/16 11:01:04;;;;;;;;;;;;;;;20.94;44.85;103061.22;4973483;28;19926;-75
2022/04/16 11:03:33;;;;;;;;;;;;;;;20.94;44.81;103047.50;4967409;28;19922;-76
2022/04/16 11:06:05;;;;;;;;;;;;;;;20.94;44.78;103039.25;4973177;28;19922;-75
2022/04/16 11:08:38;;;;;;;;;;;;;;;20.94;44.61;103047.50;4972168;28;19976;-75
2022/04/16 11:11:03;;;;;;;;;;;;;;;20.94;44.59;103042.00;4973500;28;20974;-76
2022/04/16 11:13:33;;;;;;;;;;;;;;;20.95;44.52;103049.16;4972139;28;20774;-74
2022/04/16 11:16:01;;;;;;;;;;;;;;;20.95;44.61;103043.69;4969669;28;19922;-73
2022/04/16 11:18:36;;;;;;;;;;;;;;;20.95;44.82;103036.25;4973771;28;19988;-76
2022/04/16 11:21:06;;;;;;;;;;;;;;;20.96;44.51;103039.84;4972906;28;19923;-74
2022/04/16 11:23:38;;;;;;;;;;;;;;;20.96;44.89;103042.56;4973715;28;19922;-79
2022/04/16 11:34:23;;;;;;;;;;;;;;;20.97;44.37;103041.50;4963047;28;19974;-76
2022/04/16 11:36:49;;;;;;;;;;;;;;;20.97;44.45;103041.50;4998155;28;20349;-81
2022/04/16 11:39:22;;;;;;;;;;;;;;;20.98;44.59;103036.84;4958807;28;19950;-77
2022/04/16 11:41:51;;;;;;;;;;;;;;;20.98;44.37;103036.84;4956383;28;20025;-81
2022/04/16 11:44:17;;;;;;;;;;;;;;;20.99;44.48;103042.09;4964358;28;19918;-76
2022/04/16 11:46:42;;;;;;;;;;;;;;;20.99;44.29;103035.75;4959174;28;19922;-75
2022/04/16 11:49:08;;;;;;;;;;;;;;;20.99;44.36;103031.09;4969177;28;19926;-75
2022/04/16 11:51:38;;;;;;;;;;;;;;;21.00;44.30;103024.50;4964577;28;19923;-77
2022/04/16 11:54:03;;;;;;;;;;;;;;;21.00;44.35;103030.00;4970419;28;19922;-75
2022/04/16 11:56:28;;;;;;;;;;;;;;;21.01;44.53;103025.31;4959680;28;19937;-76
2022/04/16 11:58:54;;;;;;;;;;;;;;;21.01;44.57;103019.84;4970760;28;19969;-76
2022/04/16 12:01:20;;;;;;;;;;;;;;;21.02;44.60;103030.56;4982309;28;19922;-77
2022/04/16 12:03:45;;;;;;;;;;;;;;;21.01;44.33;103031.66;4965085;28;19922;-75
2022/04/16 12:06:12;;;;;;;;;;;;;;;21.03;44.50;103034.16;4964210;28;19926;-79
2022/04/16 12:08:37;;;;;;;;;;;;;;;21.03;44.32;103032.22;4987950;28;20264;-76
2022/04/16 12:11:03;;;;;;;;;;;;;;;21.03;44.48;103034.97;4971106;28;20057;-76
2022/04/16 12:13:35;;;;;;;;;;;;;;;21.03;44.15;103017.66;4972769;28;19926;-76
2022/04/16 12:16:07;;;;;;;;;;;;;;;21.04;44.28;103016.56;4964701;28;20305;-76
2022/04/16 12:18:37;;;;;;;;;;;;;;;21.04;44.32;103020.16;4956992;28;20268;-76
2022/04/16 12:21:09;;;;;;;;;;;;;;;21.04;44.19;103019.31;4971987;28;19955;-76
2022/04/16 12:23:37;;;;;;;;;;;;;;;21.04;44.33;103025.66;4973513;28;20352;-77
2022/04/16 12:26:07;;;;;;;;;;;;;;;21.04;44.46;103009.16;4965397;28;19922;-76
2022/04/16 12:28:33;;;;;;;;;;;;;;;21.05;44.35;103015.50;4968069;28;19926;-76
2022/04/16 12:30:58;;;;;;;;;;;;;;;21.05;44.32;103010.81;4971304;28;19977;-77
2022/04/16 12:33:26;;;;;;;;;;;;;;;21.06;44.12;103014.38;4971697;28;19926;-75
2022/04/16 12:35:55;;;;;;;;;;;;;;;21.06;44.50;103006.16;4972082;28;19918;-81
2022/04/16 12:38:21;;;;;;;;;;;;;;;21.07;44.06;103002.31;4971996;28;19928;-75
2022/04/16 12:40:46;;;;;;;;;;;;;;;21.07;44.01;103011.41;4972700;28;19918;-75
2022/04/16 12:43:11;;;;;;;;;;;;;;;21.08;44.13;103015.78;4971484;28;19968;-75
2022/04/16 12:45:36;;;;;;;;;;;;;;;21.08;44.39;103013.03;4973239;28;20414;-79
2022/04/16 12:48:02;;;;;;;;;;;;;;;21.09;44.21;103002.88;4958579;28;20347;-76
2022/04/16 12:50:29;;;;;;;;;;;;;;;21.09;44.38;103014.72;4959603;28;19941;-76
2022/04/16 12:52:55;;;;;;;;;;;;;;;21.09;44.43;103017.47;4958904;28;20299;-76